Flight Briefing for CPX217

Departure Arrival
Sacramento International Airport (KSMF)
Click to view FAA NOTAMS
Chicago/Rockford International Airport (KRFD)
Click to view FAA NOTAMS
Departure Time Arrival Time
0520 UTC 0955 UTC
Aircraft Distance
B767-300BDSF 1511nm
Departure METAR Arrival METAR
KSMF 180453Z 31004KT 10SM FEW070 04/02 A3007 RMK AO2 SLP183 T00440017 KRFD 180454Z 35010KT 3SM -SN BR OVC050 M07/M09 A3000 RMK AO2 SLP170 P0000 T10671089
Suggested Route
SCTWN2 RALEY INSLO DTA DBL J60 IOW PLL


View recent IFR Routes data
Notes



Charts and Procedures

Charts for KSMF
No chart available
Charts for KRFD
No chart available

Ventusky Weather